createdAt,value
2022-07-27T00:00:35.278Z,1.65
2022-07-27T00:03:05.257Z,1.40
2022-07-27T00:05:33.878Z,1.92
2022-07-27T00:08:02.450Z,1.50
2022-07-27T00:10:31.031Z,1.72
2022-07-27T00:12:59.609Z,1.55
2022-07-27T00:15:28.250Z,1.45
2022-07-27T00:17:58.407Z,1.80
2022-07-27T00:20:28.510Z,1.47
2022-07-27T00:22:58.134Z,1.70
2022-07-27T00:25:27.735Z,1.60
2022-07-27T00:27:57.234Z,1.50
2022-07-27T00:30:26.559Z,1.55
2022-07-27T00:32:58.092Z,1.80
2022-07-27T00:35:26.657Z,1.70
2022-07-27T00:37:55.410Z,1.75
2022-07-27T00:40:25.509Z,1.40
2022-07-27T00:42:54.085Z,1.67
2022-07-27T00:45:22.816Z,1.55
2022-07-27T00:47:54.939Z,1.60
2022-07-27T00:50:21.824Z,2.00
2022-07-27T00:52:50.764Z,1.98
2022-07-27T00:55:19.562Z,1.72
2022-07-27T00:57:57.897Z,1.70
2022-07-27T01:00:19.470Z,1.45
2022-07-27T01:02:48.284Z,1.60
2022-07-27T01:05:16.873Z,1.67
2022-07-27T01:07:46.675Z,1.70
2022-07-27T01:10:15.327Z,1.60
2022-07-27T01:12:45.772Z,1.70
2022-07-27T01:15:14.825Z,1.40
2022-07-27T01:17:43.421Z,1.60
2022-07-27T01:20:12.223Z,1.57
2022-07-27T01:22:40.812Z,1.60
2022-07-27T01:25:11.352Z,1.50
2022-07-27T01:27:39.998Z,1.30
2022-07-27T01:30:11.009Z,1.37
2022-07-27T01:32:39.586Z,1.47
2022-07-27T01:35:08.935Z,1.57
2022-07-27T01:37:37.447Z,1.70
2022-07-27T01:40:08.174Z,1.22
2022-07-27T01:42:36.766Z,1.42
2022-07-27T01:45:05.606Z,1.30
2022-07-27T01:47:34.196Z,1.32
2022-07-27T01:50:02.774Z,1.20
2022-07-27T01:52:31.346Z,1.30
2022-07-27T01:55:00.184Z,1.30
2022-07-27T01:57:28.758Z,1.57
2022-07-27T01:59:57.368Z,1.50
2022-07-27T02:02:25.938Z,1.57
2022-07-27T02:04:54.581Z,1.80
2022-07-27T02:07:23.741Z,1.80
2022-07-27T02:09:52.329Z,1.62
2022-07-27T02:12:35.912Z,1.67
2022-07-27T02:15:14.932Z,1.42
2022-07-27T02:17:41.317Z,2.15
2022-07-27T02:20:11.213Z,1.90
2022-07-27T02:22:40.025Z,2.10
2022-07-27T02:25:09.450Z,1.70
2022-07-27T02:27:38.264Z,1.52
2022-07-27T02:30:07.656Z,2.05
2022-07-27T02:32:36.368Z,1.98
2022-07-27T02:35:18.368Z,1.95
2022-07-27T02:37:35.609Z,1.82
2022-07-27T02:40:06.056Z,1.80
2022-07-27T02:42:34.645Z,1.85
2022-07-27T02:45:03.227Z,1.60
2022-07-27T02:47:31.813Z,1.70
2022-07-27T02:50:01.625Z,1.77
2022-07-27T02:52:30.272Z,1.80
2022-07-27T02:54:58.876Z,1.75
2022-07-27T02:57:27.512Z,1.80
2022-07-27T02:59:57.385Z,1.80
2022-07-27T03:02:26.256Z,2.25
2022-07-27T03:04:54.837Z,2.45
2022-07-27T03:07:23.410Z,2.30
2022-07-27T03:09:52.741Z,2.12
2022-07-27T03:12:21.460Z,2.20
2022-07-27T03:14:50.309Z,2.30
2022-07-27T03:17:19.121Z,2.50
2022-07-27T03:19:49.358Z,2.30
2022-07-27T03:22:18.295Z,2.35
2022-07-27T03:24:46.943Z,2.33
2022-07-27T03:27:15.612Z,2.30
2022-07-27T03:29:44.169Z,2.30
2022-07-27T03:32:12.834Z,2.50
2022-07-27T03:34:41.419Z,2.40
2022-07-27T03:37:09.999Z,2.90
2022-07-27T03:39:38.578Z,2.50
2022-07-27T03:42:07.302Z,2.10
2022-07-27T03:44:35.867Z,2.50
2022-07-27T03:47:04.446Z,2.10
2022-07-27T03:49:33.137Z,2.35
2022-07-27T03:52:01.897Z,2.58
2022-07-27T03:54:30.565Z,2.17
2022-07-27T03:56:59.218Z,2.40
2022-07-27T03:59:27.797Z,3.10
2022-07-27T04:01:56.535Z,2.62
2022-07-27T04:04:25.263Z,2.65
2022-07-27T04:06:53.757Z,2.40
2022-07-27T04:09:22.492Z,2.47
2022-07-27T04:11:51.637Z,2.35
2022-07-27T04:14:20.567Z,2.47
2022-07-27T04:16:49.554Z,2.25
2022-07-27T04:19:18.356Z,2.08
2022-07-27T04:21:47.096Z,1.80
2022-07-27T04:24:15.692Z,2.20
2022-07-27T04:26:44.342Z,2.10
2022-07-27T04:29:16.960Z,1.95
2022-07-27T04:31:43.339Z,2.37
2022-07-27T04:34:11.923Z,1.95
2022-07-27T04:36:40.660Z,2.12
2022-07-27T04:39:09.839Z,1.90
2022-07-27T04:41:38.698Z,2.20
2022-07-27T04:44:07.343Z,2.15
2022-07-27T04:46:35.916Z,1.85
2022-07-27T04:49:04.614Z,1.95
2022-07-27T04:51:34.796Z,2.30
2022-07-27T04:54:04.129Z,2.35
2022-07-27T04:56:32.714Z,2.15
2022-07-27T04:59:01.307Z,2.80
2022-07-27T05:01:35.004Z,3.08
2022-07-27T05:04:00.361Z,2.50
2022-07-27T05:06:28.973Z,2.67
2022-07-27T05:08:57.551Z,2.15
2022-07-27T05:11:26.202Z,2.65
2022-07-27T05:13:54.785Z,2.75
2022-07-27T05:16:28.337Z,2.52
2022-07-27T05:18:53.585Z,2.60
2022-07-27T05:21:22.180Z,2.27
2022-07-27T05:23:50.702Z,2.10
2022-07-27T05:26:19.376Z,2.17
2022-07-27T05:28:47.966Z,2.47
2022-07-27T05:31:16.803Z,2.10
2022-07-27T05:33:49.168Z,2.58
2022-07-27T05:36:15.850Z,2.30
2022-07-27T05:38:44.424Z,2.70
2022-07-27T05:41:13.072Z,2.30
2022-07-27T05:43:41.736Z,2.40
2022-07-27T05:46:10.408Z,2.40
2022-07-27T05:48:39.051Z,2.22
2022-07-27T05:51:08.434Z,2.55
2022-07-27T05:53:37.291Z,2.30
2022-07-27T05:56:07.815Z,2.35
2022-07-27T05:58:36.483Z,2.30
2022-07-27T06:01:05.236Z,2.30
2022-07-27T06:03:34.163Z,2.08
2022-07-27T06:06:20.896Z,2.20
2022-07-27T06:08:49.562Z,2.40
2022-07-27T06:11:18.231Z,2.08
2022-07-27T06:13:47.176Z,2.05
2022-07-27T06:16:15.812Z,2.20
2022-07-27T06:18:44.432Z,2.20
2022-07-27T06:21:13.052Z,1.87
2022-07-27T06:23:41.627Z,2.52
2022-07-27T06:26:10.219Z,4.25
2022-07-27T06:28:38.816Z,2.20
2022-07-27T06:31:07.545Z,1.60
2022-07-27T06:33:38.008Z,1.80
2022-07-27T06:36:08.433Z,1.60
2022-07-27T06:38:37.681Z,1.67
2022-07-27T06:41:06.370Z,1.32
2022-07-27T06:43:34.966Z,1.30
2022-07-27T06:46:04.016Z,1.30
2022-07-27T06:48:32.709Z,1.20
2022-07-27T06:56:00.454Z,1.15
2022-07-27T06:58:29.048Z,1.40
2022-07-27T07:00:58.228Z,1.20
2022-07-27T07:03:26.578Z,1.20
2022-07-27T07:05:54.878Z,1.20
2022-07-27T07:08:23.133Z,1.10
2022-07-27T07:10:51.952Z,1.00
2022-07-27T07:13:20.368Z,0.90
2022-07-27T07:15:48.657Z,0.90
2022-07-27T07:18:16.882Z,0.90
2022-07-27T07:20:45.142Z,0.80
2022-07-27T07:23:13.464Z,0.90
2022-07-27T07:25:42.486Z,1.02
2022-07-27T07:28:10.814Z,0.93
2022-07-27T07:30:39.062Z,0.85
2022-07-27T07:33:07.299Z,0.98
2022-07-27T07:35:35.556Z,1.00
2022-07-27T07:38:03.810Z,0.80
2022-07-27T07:40:43.242Z,1.00
2022-07-27T07:43:03.419Z,0.90
2022-07-27T07:45:32.737Z,1.00
2022-07-27T07:48:00.978Z,0.90
2022-07-27T07:50:29.257Z,0.90
2022-07-27T07:52:57.501Z,0.90
2022-07-27T07:55:27.434Z,0.82
2022-07-27T07:57:57.144Z,0.82
2022-07-27T08:00:25.435Z,0.90
2022-07-27T08:02:59.789Z,0.80
2022-07-27T08:05:28.100Z,1.00
2022-07-27T08:07:56.347Z,0.98
2022-07-27T08:10:25.133Z,0.90
2022-07-27T08:12:55.177Z,1.02
2022-07-27T08:15:34.808Z,0.90
2022-07-27T08:17:53.684Z,0.90
2022-07-27T08:20:23.534Z,0.90
2022-07-27T08:22:51.783Z,1.00
2022-07-27T08:25:20.028Z,0.90
2022-07-27T08:27:48.297Z,0.90
2022-07-27T08:30:16.552Z,0.80
2022-07-27T08:32:53.483Z,0.80
2022-07-27T08:35:22.155Z,0.80
2022-07-27T08:37:50.488Z,1.00
2022-07-27T08:42:49.449Z,0.88
2022-07-27T08:45:19.651Z,0.90
2022-07-27T08:47:47.906Z,0.90
2022-07-27T08:50:23.623Z,0.70
2022-07-27T08:52:56.666Z,0.95
2022-07-27T08:55:25.093Z,1.00
2022-07-27T08:57:53.357Z,1.20
2022-07-27T09:00:21.945Z,0.90
2022-07-27T09:02:50.866Z,0.80
2022-07-27T09:05:19.060Z,1.20
2022-07-27T09:07:47.707Z,1.20
2022-07-27T09:10:33.716Z,1.40
2022-07-27T09:13:22.097Z,1.20
2022-07-27T09:18:26.900Z,1.40
2022-07-27T09:26:33.749Z,2.50
2022-07-27T09:29:04.405Z,2.15
2022-07-27T09:34:03.620Z,2.50
2022-07-27T09:46:48.257Z,1.87
2022-07-27T09:49:31.838Z,1.80
2022-07-27T09:52:03.402Z,1.82
2022-07-27T09:54:44.480Z,1.87
2022-07-27T09:57:13.249Z,2.20
2022-07-27T09:59:42.300Z,2.10
2022-07-27T10:02:14.095Z,2.10
2022-07-27T10:04:43.462Z,1.80
2022-07-27T10:07:14.192Z,2.00
2022-07-27T10:09:43.235Z,3.80
2022-07-27T10:12:11.947Z,2.12
2022-07-27T10:14:40.629Z,2.22
2022-07-27T10:17:10.833Z,2.20
2022-07-27T10:19:46.829Z,2.25
2022-07-27T10:22:16.917Z,2.27
2022-07-27T10:24:48.733Z,2.33
2022-07-27T10:27:22.059Z,2.37
2022-07-27T10:29:52.207Z,2.17
2022-07-27T10:32:34.104Z,2.15
2022-07-27T10:35:02.968Z,2.05
2022-07-27T10:37:33.918Z,2.05
2022-07-27T10:40:23.786Z,1.77
2022-07-27T10:42:54.875Z,1.50
2022-07-27T10:45:24.000Z,1.53
2022-07-27T10:47:53.429Z,1.60
2022-07-27T10:50:25.444Z,1.60
2022-07-27T10:53:00.283Z,1.57
2022-07-27T10:55:36.571Z,1.70
2022-07-27T10:58:18.341Z,1.87
2022-07-27T11:00:55.924Z,1.98
2022-07-27T11:03:26.466Z,3.75
2022-07-27T11:06:14.538Z,1.80
2022-07-27T11:08:39.641Z,1.80
2022-07-27T11:11:08.568Z,1.77
2022-07-27T11:13:38.900Z,1.60
2022-07-27T11:16:26.138Z,1.60
2022-07-27T11:18:43.388Z,1.52
2022-07-27T11:21:27.064Z,1.40
2022-07-27T11:23:58.764Z,1.50
2022-07-27T11:26:29.002Z,1.60
2022-07-27T11:28:58.107Z,1.40
2022-07-27T11:31:52.668Z,1.60
2022-07-27T11:33:59.870Z,1.77
2022-07-27T11:36:46.614Z,1.40
2022-07-27T11:39:43.696Z,1.65
2022-07-27T11:42:08.731Z,1.50
2022-07-27T11:44:18.554Z,1.80
2022-07-27T11:46:48.994Z,1.40
2022-07-27T11:49:20.455Z,1.40
2022-07-27T11:51:50.289Z,1.50
2022-07-27T11:54:19.816Z,1.50
2022-07-27T11:56:49.320Z,1.30
2022-07-27T11:59:19.133Z,1.50
2022-07-27T12:01:49.527Z,1.40
2022-07-27T12:04:19.358Z,1.37
2022-07-27T12:06:49.113Z,1.40
2022-07-27T12:09:18.186Z,1.60
2022-07-27T12:11:49.588Z,1.50
2022-07-27T12:14:18.975Z,1.70
2022-07-27T12:16:47.321Z,1.30
2022-07-27T12:19:17.049Z,1.35
2022-07-27T12:36:41.450Z,1.22
2022-07-27T12:39:11.997Z,1.15
2022-07-27T12:41:40.728Z,1.20
2022-07-27T12:44:12.135Z,1.32
2022-07-27T12:47:00.652Z,1.30
2022-07-27T12:49:32.171Z,1.42
2022-07-27T12:52:10.796Z,1.20
2022-07-27T12:54:39.441Z,1.10
2022-07-27T12:57:08.022Z,1.17
2022-07-27T12:59:36.620Z,1.10
2022-07-27T13:02:05.351Z,1.12
2022-07-27T13:26:49.654Z,0.85
2022-07-27T13:29:19.076Z,1.17
2022-07-27T13:31:53.630Z,1.17
2022-07-27T13:34:18.125Z,1.10
2022-07-27T13:36:46.802Z,1.27
2022-07-27T13:39:15.848Z,1.10
2022-07-27T13:41:44.622Z,1.10
2022-07-27T13:44:30.216Z,1.05
2022-07-27T13:46:43.637Z,1.02
2022-07-27T13:49:12.611Z,1.00
2022-07-27T13:51:42.621Z,1.00
2022-07-27T13:54:11.334Z,1.00
2022-07-27T13:56:39.681Z,1.00
2022-07-27T13:59:08.024Z,1.20
2022-07-27T14:01:38.121Z,1.20
2022-07-27T14:04:10.184Z,1.20
2022-07-27T14:06:38.517Z,0.90
2022-07-27T14:09:07.638Z,1.20
2022-07-27T14:11:37.540Z,1.10
2022-07-27T14:14:05.859Z,1.20
2022-07-27T14:16:34.156Z,1.30
2022-07-27T14:19:03.047Z,1.27
2022-07-27T14:21:31.716Z,1.22
2022-07-27T14:24:01.115Z,1.27
2022-07-27T14:26:29.582Z,1.17
2022-07-27T14:28:57.849Z,1.20
2022-07-27T14:31:26.151Z,1.30
2022-07-27T14:33:54.493Z,1.60
2022-07-27T14:36:23.729Z,1.40
2022-07-27T14:38:53.341Z,1.35
2022-07-27T16:15:19.854Z,1.17
2022-07-27T16:22:45.088Z,1.30
2022-07-27T16:25:13.861Z,1.07
2022-07-27T16:27:42.544Z,1.17
2022-07-27T16:30:11.667Z,1.10
2022-07-27T16:45:05.571Z,1.10
2022-07-27T16:47:34.258Z,0.98
2022-07-27T16:50:03.031Z,1.00
2022-07-27T16:52:31.834Z,1.00
2022-07-27T16:55:00.517Z,1.10
2022-07-27T16:57:29.290Z,1.25
2022-07-27T16:59:58.966Z,1.10
2022-07-27T17:02:29.841Z,1.00
2022-07-27T17:04:58.771Z,1.20
2022-07-27T17:07:27.903Z,1.07
2022-07-27T17:09:56.586Z,1.00
2022-07-27T17:12:25.112Z,1.00
2022-07-27T17:14:54.655Z,1.02
2022-07-27T17:17:23.020Z,1.00
2022-07-27T17:19:51.501Z,1.00
2022-07-27T17:22:19.733Z,1.10
2022-07-27T17:24:48.089Z,1.20
2022-07-27T17:27:16.469Z,1.10
2022-07-27T17:29:44.932Z,1.17
2022-07-27T17:32:13.199Z,1.00
2022-07-27T17:34:44.442Z,1.10
2022-07-27T17:37:13.167Z,1.00
2022-07-27T17:39:41.438Z,1.10
2022-07-27T17:42:09.697Z,1.00
2022-07-27T17:44:39.153Z,1.20
2022-07-27T17:47:07.785Z,1.07
2022-07-27T17:49:36.093Z,1.22
2022-07-27T17:52:05.994Z,1.10
2022-07-27T17:54:35.223Z,1.20
2022-07-27T17:57:03.479Z,1.10
2022-07-27T17:59:39.063Z,1.27
2022-07-27T18:02:03.237Z,1.30
2022-07-27T18:04:35.614Z,1.10
2022-07-27T18:07:01.815Z,1.10
2022-07-27T18:09:30.107Z,1.10
2022-07-27T18:11:58.346Z,1.30
2022-07-27T18:14:26.605Z,1.20
2022-07-27T18:16:54.916Z,1.10
2022-07-27T18:19:23.338Z,1.20
2022-07-27T18:21:51.632Z,1.20
2022-07-27T18:24:21.478Z,1.27
2022-07-27T18:26:50.084Z,1.22
2022-07-27T18:29:20.086Z,1.20
2022-07-27T18:31:48.678Z,1.10
2022-07-27T18:34:17.942Z,1.25
2022-07-27T18:36:47.007Z,1.10
2022-07-27T18:39:16.205Z,1.20
2022-07-27T18:41:44.952Z,1.25
2022-07-27T18:44:13.526Z,1.20
2022-07-27T18:46:43.053Z,1.20
2022-07-27T18:49:13.957Z,1.32
2022-07-27T18:51:43.050Z,1.27
2022-07-27T18:54:11.638Z,1.25
2022-07-27T18:56:40.798Z,1.20
2022-07-27T18:59:09.706Z,1.60
2022-07-27T19:01:38.918Z,1.20
2022-07-27T19:04:07.672Z,1.60
2022-07-27T19:06:36.767Z,1.40
2022-07-27T19:09:06.119Z,1.40
2022-07-27T19:11:35.098Z,1.40
2022-07-27T19:14:04.121Z,1.40
2022-07-27T19:16:34.287Z,1.20
2022-07-27T19:19:03.748Z,1.27
2022-07-27T19:21:32.332Z,1.37
2022-07-27T19:24:01.075Z,1.45
2022-07-27T19:26:29.665Z,1.30
2022-07-27T19:28:58.341Z,1.30
2022-07-27T19:31:28.238Z,1.40
2022-07-27T19:33:56.843Z,1.60
2022-07-27T19:36:25.414Z,1.55
2022-07-27T19:38:54.375Z,1.47
2022-07-27T19:41:23.027Z,1.50
2022-07-27T19:43:51.634Z,1.40
2022-07-27T19:46:20.375Z,1.40
2022-07-27T19:48:49.110Z,1.50
2022-07-27T19:51:17.772Z,1.37
2022-07-27T19:53:46.448Z,1.37
2022-07-27T19:56:15.608Z,1.50
2022-07-27T19:58:44.445Z,1.50
2022-07-27T20:01:13.955Z,1.40
2022-07-27T20:03:53.368Z,1.50
2022-07-27T20:06:14.281Z,1.40
2022-07-27T20:08:43.261Z,1.50
2022-07-27T20:11:12.367Z,1.45
2022-07-27T20:13:41.014Z,4.70
2022-07-27T20:16:09.998Z,2.75
2022-07-27T20:18:38.722Z,2.00
2022-07-27T20:21:20.099Z,1.70
2022-07-27T20:23:39.430Z,1.55
2022-07-27T20:26:12.673Z,1.90
2022-07-27T20:28:41.361Z,1.95
2022-07-27T20:31:10.049Z,1.82
2022-07-27T20:33:40.175Z,1.70
2022-07-27T20:36:09.005Z,1.60
2022-07-27T20:38:37.613Z,1.50
2022-07-27T20:41:06.325Z,1.55
2022-07-27T20:43:34.904Z,1.52
2022-07-27T20:46:04.041Z,1.73
2022-07-27T20:48:33.717Z,1.50
2022-07-27T20:51:02.641Z,1.32
2022-07-27T20:53:32.648Z,1.37
2022-07-27T20:56:01.265Z,1.40
2022-07-27T20:58:29.943Z,1.30
2022-07-27T21:00:58.742Z,1.45
2022-07-27T21:03:28.270Z,1.40
2022-07-27T21:05:56.896Z,1.62
2022-07-27T21:08:26.422Z,1.85
2022-07-27T21:10:56.736Z,2.00
2022-07-27T21:13:25.432Z,1.60
2022-07-27T21:15:54.087Z,1.70
2022-07-27T21:18:22.663Z,1.73
2022-07-27T21:20:51.250Z,1.42
